createdAt,value
2022-11-06T00:01:56.931Z,4.20
2022-11-06T00:04:24.128Z,5.30
2022-11-06T00:06:51.111Z,4.10
2022-11-06T00:09:20.005Z,4.10
2022-11-06T00:11:49.004Z,4.00
2022-11-06T00:14:17.329Z,5.90
2022-11-06T00:16:45.630Z,5.10
2022-11-06T00:19:13.425Z,4.00
2022-11-06T00:21:40.740Z,4.00
2022-11-06T00:24:09.528Z,5.60
2022-11-06T00:26:37.269Z,3.90
2022-11-06T00:29:05.336Z,5.70
2022-11-06T00:31:35.757Z,3.80
2022-11-06T00:34:03.477Z,4.10
2022-11-06T00:36:31.048Z,3.70
2022-11-06T00:38:59.071Z,3.60
2022-11-06T00:41:27.135Z,3.60
2022-11-06T00:43:57.395Z,3.60
2022-11-06T00:46:25.118Z,3.80
2022-11-06T00:48:53.472Z,5.70
2022-11-06T00:51:27.497Z,5.00
2022-11-06T00:53:56.332Z,5.70
2022-11-06T00:56:23.843Z,4.20
2022-11-06T00:58:51.398Z,3.80
2022-11-06T01:01:27.238Z,5.80
2022-11-06T01:03:58.732Z,3.70
2022-11-06T01:06:28.093Z,3.80
2022-11-06T01:08:55.454Z,3.80
2022-11-06T01:11:25.114Z,3.80
2022-11-06T01:13:52.836Z,3.90
2022-11-06T01:16:20.039Z,3.90
2022-11-06T01:18:47.778Z,3.90
2022-11-06T01:21:17.534Z,3.90
2022-11-06T01:23:45.181Z,3.90
2022-11-06T01:26:14.334Z,3.90
2022-11-06T01:28:42.256Z,3.90
2022-11-06T01:31:12.591Z,6.20
2022-11-06T01:33:40.508Z,4.00
2022-11-06T01:36:10.597Z,4.00
2022-11-06T01:38:44.176Z,4.00
2022-11-06T01:41:30.604Z,4.00
2022-11-06T01:44:02.176Z,4.00
2022-11-06T01:50:55.257Z,4.00
2022-11-06T01:53:23.851Z,4.10
2022-11-06T01:55:54.987Z,4.00
2022-11-06T01:58:24.747Z,4.00
2022-11-06T02:00:51.804Z,4.40
2022-11-06T02:03:19.276Z,4.00
2022-11-06T02:05:46.687Z,4.10
2022-11-06T02:08:17.227Z,5.50
2022-11-06T02:10:45.217Z,5.50
2022-11-06T02:13:16.957Z,4.00
2022-11-06T02:15:46.994Z,5.80
2022-11-06T02:18:40.318Z,3.90
2022-11-06T02:21:25.796Z,3.90
2022-11-06T02:24:04.866Z,3.90
2022-11-06T02:26:50.525Z,3.90
2022-11-06T02:29:34.663Z,3.80
2022-11-06T02:32:08.630Z,3.80
2022-11-06T02:34:37.199Z,3.80
2022-11-06T02:37:23.868Z,3.70
2022-11-06T02:39:52.667Z,3.70
2022-11-06T02:42:21.162Z,3.70
2022-11-06T02:44:52.712Z,3.60
2022-11-06T02:47:21.990Z,3.60
2022-11-06T02:49:57.644Z,3.70
2022-11-06T02:52:53.458Z,3.40
2022-11-06T02:55:24.623Z,3.40
2022-11-06T02:57:56.992Z,5.90
2022-11-06T03:00:25.346Z,3.20
2022-11-06T03:03:01.126Z,5.90
2022-11-06T03:05:32.070Z,5.10
2022-11-06T03:08:18.269Z,5.70
2022-11-06T03:11:11.029Z,2.90
2022-11-06T03:13:58.464Z,2.80
2022-11-06T03:16:31.273Z,2.80
2022-11-06T03:19:11.772Z,2.80
2022-11-06T03:22:06.459Z,5.40
2022-11-06T03:24:59.274Z,2.70
2022-11-06T03:27:36.539Z,2.60
2022-11-06T03:30:15.351Z,2.60
2022-11-06T03:33:03.797Z,2.60
2022-11-06T03:35:38.805Z,4.60
2022-11-06T03:38:31.064Z,3.90
2022-11-06T03:41:27.084Z,2.40
2022-11-06T03:43:58.051Z,4.10
2022-11-06T03:46:28.534Z,5.20
2022-11-06T03:49:03.393Z,2.40
2022-11-06T03:51:41.403Z,5.10
2022-11-06T03:54:15.844Z,2.50
2022-11-06T03:56:56.244Z,2.40
2022-11-06T03:59:29.505Z,2.50
2022-11-06T04:01:58.739Z,4.40
2022-11-06T04:04:30.704Z,3.60
2022-11-06T04:07:06.337Z,5.30
2022-11-06T04:09:56.206Z,3.90
2022-11-06T04:12:44.683Z,4.40
2022-11-06T04:15:16.716Z,2.60
2022-11-06T04:17:43.797Z,4.00
2022-11-06T04:20:39.169Z,5.00
2022-11-06T04:23:30.850Z,2.60
2022-11-06T04:26:36.710Z,2.60
2022-11-06T04:29:37.511Z,3.20
2022-11-06T04:32:13.519Z,2.50
2022-11-06T04:34:54.567Z,4.30
2022-11-06T04:37:36.489Z,2.50
2022-11-06T04:40:06.565Z,2.50
2022-11-06T04:43:00.996Z,2.50
2022-11-06T04:45:35.787Z,4.30
2022-11-06T04:48:05.534Z,2.40
2022-11-06T04:50:39.779Z,2.40
2022-11-06T04:53:09.552Z,2.50
2022-11-06T04:55:51.682Z,4.60
2022-11-06T04:58:18.689Z,2.40
2022-11-06T05:00:48.930Z,2.80
2022-11-06T05:03:17.430Z,3.20
2022-11-06T05:05:44.984Z,4.20
2022-11-06T05:08:17.093Z,3.10
2022-11-06T05:10:44.193Z,4.00
2022-11-06T05:13:12.302Z,4.90
2022-11-06T05:15:39.465Z,3.80
2022-11-06T05:18:06.856Z,4.90
2022-11-06T05:20:34.929Z,2.20
2022-11-06T05:23:02.029Z,2.20
2022-11-06T05:25:34.282Z,2.90
2022-11-06T05:28:02.716Z,2.20
2022-11-06T05:30:29.671Z,4.20
2022-11-06T05:32:56.638Z,3.30
2022-11-06T05:35:23.648Z,4.80
2022-11-06T05:37:50.712Z,4.30
2022-11-06T05:40:17.896Z,4.20
2022-11-06T05:42:44.955Z,2.10
2022-11-06T05:45:12.532Z,3.90
2022-11-06T05:47:42.795Z,3.00
2022-11-06T05:50:10.811Z,3.40
2022-11-06T05:52:38.037Z,3.60
2022-11-06T05:55:10.163Z,4.10
2022-11-06T05:57:40.357Z,2.10
2022-11-06T06:00:08.929Z,4.00
2022-11-06T06:02:40.180Z,2.10
2022-11-06T06:05:08.323Z,3.70
2022-11-06T06:07:35.569Z,2.10
2022-11-06T06:10:02.849Z,4.80
2022-11-06T06:12:29.898Z,2.10
2022-11-06T06:14:56.905Z,2.70
2022-11-06T06:17:24.069Z,3.90
2022-11-06T06:19:51.105Z,4.80
2022-11-06T06:22:18.124Z,4.40
2022-11-06T06:24:45.313Z,2.10
2022-11-06T06:27:12.442Z,4.60
2022-11-06T06:33:52.427Z,2.10
2022-11-06T06:36:19.514Z,3.70
2022-11-06T06:38:46.544Z,3.90
2022-11-06T06:41:13.571Z,4.70
2022-11-06T06:43:40.581Z,3.50
2022-11-06T06:46:09.607Z,4.10
2022-11-06T06:48:36.709Z,3.70
2022-11-06T06:51:05.013Z,4.00
2022-11-06T06:53:32.155Z,2.20
2022-11-06T06:56:03.432Z,2.20
2022-11-06T06:58:31.179Z,2.20
2022-11-06T07:01:05.900Z,3.60
2022-11-06T07:03:33.026Z,2.30
2022-11-06T07:06:00.226Z,2.30
2022-11-06T07:08:27.734Z,3.90
2022-11-06T07:11:00.050Z,3.80
2022-11-06T07:13:30.270Z,5.00
2022-11-06T07:16:02.341Z,3.10
2022-11-06T07:18:29.471Z,2.60
2022-11-06T07:20:56.444Z,3.00
2022-11-06T07:23:23.484Z,5.10
2022-11-06T07:25:56.737Z,5.40
2022-11-06T07:28:23.878Z,3.40
2022-11-06T07:30:50.868Z,5.60
2022-11-06T07:33:17.981Z,3.10
2022-11-06T07:35:45.122Z,3.40
2022-11-06T07:38:12.520Z,3.10
2022-11-06T07:40:39.687Z,4.00
2022-11-06T07:43:08.334Z,5.60
2022-11-06T07:45:36.203Z,5.50
2022-11-06T07:48:03.930Z,3.40
2022-11-06T07:50:31.605Z,3.50
2022-11-06T07:53:01.276Z,5.70
2022-11-06T07:55:28.138Z,4.90
2022-11-06T07:57:55.301Z,3.90
2022-11-06T08:00:22.283Z,4.00
2022-11-06T08:02:53.614Z,6.10
2022-11-06T08:05:21.156Z,4.20
2022-11-06T08:07:48.199Z,5.60
2022-11-06T08:10:15.339Z,4.40
2022-11-06T08:12:42.401Z,4.50
2022-11-06T08:15:09.794Z,4.70
2022-11-06T08:17:37.656Z,4.80
2022-11-06T08:20:05.155Z,5.00
2022-11-06T08:22:32.236Z,5.20
2022-11-06T08:24:59.262Z,5.30
2022-11-06T08:27:26.312Z,6.00
2022-11-06T08:29:53.278Z,5.60
2022-11-06T08:32:20.326Z,6.40
2022-11-06T08:34:47.287Z,6.00
2022-11-06T08:37:49.437Z,6.10
2022-11-06T08:40:16.550Z,6.30
2022-11-06T08:42:43.598Z,6.50
2022-11-06T08:45:10.950Z,6.50
2022-11-06T08:47:37.988Z,6.60
2022-11-06T08:50:05.866Z,6.70
2022-11-06T08:52:34.179Z,6.80
2022-11-06T08:55:01.515Z,6.90
2022-11-06T08:57:28.551Z,7.00
2022-11-06T08:59:55.517Z,7.10
2022-11-06T09:02:22.547Z,7.20
2022-11-06T09:04:49.598Z,7.40
2022-11-06T09:07:17.460Z,7.40
2022-11-06T09:09:44.548Z,7.60
2022-11-06T09:12:11.615Z,7.70
2022-11-06T09:14:40.113Z,7.90
2022-11-06T09:17:07.110Z,8.00
2022-11-06T09:19:34.069Z,8.20
2022-11-06T09:22:01.032Z,8.30
2022-11-06T09:24:57.085Z,8.50
2022-11-06T09:27:16.015Z,8.50
2022-11-06T09:29:44.368Z,8.70
2022-11-06T09:32:11.832Z,8.80
2022-11-06T09:34:38.814Z,8.90
2022-11-06T09:37:05.818Z,8.90
2022-11-06T09:39:32.811Z,9.00
2022-11-06T09:42:16.181Z,9.10
2022-11-06T09:45:22.872Z,9.10
2022-11-06T09:47:57.712Z,9.20
2022-11-06T09:50:30.366Z,9.10
2022-11-06T09:53:07.561Z,9.00
2022-11-06T09:55:39.833Z,9.00
2022-11-06T09:58:13.320Z,9.00
2022-11-06T10:00:41.839Z,8.90
2022-11-06T10:03:23.196Z,8.90
2022-11-06T10:05:53.344Z,8.90
2022-11-06T10:08:27.192Z,9.00
2022-11-06T10:11:20.638Z,9.00
2022-11-06T10:14:10.676Z,9.00
2022-11-06T10:16:51.105Z,8.90
2022-11-06T10:19:18.075Z,8.90
2022-11-06T10:21:49.273Z,9.00
2022-11-06T10:24:19.019Z,9.10
2022-11-06T10:26:48.753Z,9.20
2022-11-06T10:29:31.803Z,9.60
2022-11-06T10:32:33.165Z,9.50
2022-11-06T10:35:14.349Z,9.60
2022-11-06T10:38:03.125Z,9.60
2022-11-06T10:40:33.040Z,9.70
2022-11-06T10:43:24.057Z,9.70
2022-11-06T10:46:19.763Z,9.80
2022-11-06T10:49:00.771Z,9.90
2022-11-06T10:51:36.743Z,10.00
2022-11-06T10:54:09.570Z,10.00
2022-11-06T10:56:57.906Z,10.00
2022-11-06T10:59:25.048Z,10.00
2022-11-06T11:01:52.529Z,10.00
2022-11-06T11:04:19.615Z,10.00
2022-11-06T11:06:46.609Z,10.00
2022-11-06T11:09:27.549Z,10.00
2022-11-06T11:11:54.653Z,9.90
2022-11-06T11:14:32.010Z,9.90
2022-11-06T11:17:07.728Z,9.80
2022-11-06T11:23:32.720Z,9.80
2022-11-06T11:26:24.242Z,9.90
2022-11-06T11:29:11.513Z,9.90
2022-11-06T11:31:38.972Z,10.00
2022-11-06T11:34:15.742Z,10.10
2022-11-06T11:37:01.714Z,10.10
2022-11-06T11:39:37.339Z,10.20
2022-11-06T11:42:32.353Z,10.10
2022-11-06T11:45:22.260Z,10.20
2022-11-06T11:48:17.676Z,10.20
2022-11-06T11:50:44.777Z,10.30
2022-11-06T11:53:18.685Z,10.40
2022-11-06T11:55:48.878Z,10.30
2022-11-06T11:58:28.249Z,10.30
2022-11-06T12:01:01.603Z,10.20
2022-11-06T12:03:41.693Z,10.20
2022-11-06T12:06:12.822Z,10.20
2022-11-06T12:08:45.214Z,10.30
2022-11-06T12:11:19.646Z,10.40
2022-11-06T12:14:09.567Z,10.40
2022-11-06T12:16:36.876Z,10.40
2022-11-06T12:19:04.169Z,10.30
2022-11-06T12:21:36.040Z,10.30
2022-11-06T12:24:27.073Z,10.40
2022-11-06T12:27:16.112Z,10.40
2022-11-06T12:30:02.432Z,10.30
2022-11-06T12:32:49.523Z,10.30
2022-11-06T12:35:34.225Z,10.30
2022-11-06T12:38:14.587Z,10.30
2022-11-06T12:40:49.136Z,10.20
2022-11-06T12:43:44.973Z,10.10
2022-11-06T12:46:36.360Z,10.10
2022-11-06T12:49:06.103Z,10.10
2022-11-06T12:51:45.167Z,10.00
2022-11-06T12:54:24.812Z,9.90
2022-11-06T12:57:16.132Z,9.80
2022-11-06T13:00:21.392Z,9.70
2022-11-06T13:03:08.966Z,9.50
2022-11-06T13:05:41.262Z,9.50
2022-11-06T13:08:33.086Z,9.40
2022-11-06T13:11:24.278Z,9.30
2022-11-06T13:14:19.786Z,9.10
2022-11-06T13:17:12.577Z,9.10
2022-11-06T13:20:14.435Z,9.00
2022-11-06T13:23:12.629Z,9.00
2022-11-06T13:26:02.783Z,8.90
2022-11-06T13:33:11.006Z,8.60
2022-11-06T13:35:41.064Z,8.30
2022-11-06T13:38:15.348Z,8.30
2022-11-06T13:40:45.302Z,8.30
2022-11-06T13:43:17.453Z,8.10
2022-11-06T13:46:22.018Z,8.10
2022-11-06T13:49:10.867Z,8.00
2022-11-06T13:51:55.173Z,8.00
2022-11-06T13:54:43.775Z,7.80
2022-11-06T13:57:33.357Z,7.80
2022-11-06T14:00:19.425Z,7.60
2022-11-06T14:03:24.099Z,7.50
2022-11-06T14:05:57.872Z,7.40
2022-11-06T14:08:42.310Z,7.40
2022-11-06T14:11:17.949Z,7.30
2022-11-06T14:14:04.327Z,7.20
2022-11-06T14:16:35.184Z,7.20
2022-11-06T14:19:11.630Z,7.20
2022-11-06T14:21:51.358Z,7.10
2022-11-06T14:24:33.636Z,7.10
2022-11-06T14:27:09.029Z,7.10
2022-11-06T14:29:36.014Z,7.00
2022-11-06T14:32:36.936Z,7.10
2022-11-06T14:35:29.479Z,7.10
2022-11-06T14:38:18.479Z,7.00
2022-11-06T14:40:45.592Z,7.10
2022-11-06T14:43:29.322Z,7.00
2022-11-06T14:46:00.909Z,7.00
2022-11-06T14:49:05.827Z,7.00
2022-11-06T14:51:32.969Z,6.90
2022-11-06T14:54:04.766Z,6.90
2022-11-06T14:56:34.137Z,6.80
2022-11-06T14:59:07.327Z,6.80
2022-11-06T15:01:37.307Z,6.70
2022-11-06T15:04:13.520Z,6.60
2022-11-06T15:06:46.062Z,6.60
2022-11-06T15:09:38.937Z,6.60
2022-11-06T15:12:07.715Z,6.60
2022-11-06T15:14:34.668Z,6.50
2022-11-06T15:17:13.327Z,6.50
2022-11-06T15:20:01.806Z,6.50
2022-11-06T15:22:42.948Z,6.50
2022-11-06T15:25:21.797Z,6.50
2022-11-06T15:28:29.395Z,6.40
2022-11-06T15:31:08.361Z,6.40
2022-11-06T15:33:59.907Z,6.40
2022-11-06T15:36:29.174Z,6.30
2022-11-06T15:38:56.153Z,6.30
2022-11-06T15:41:27.325Z,6.30
2022-11-06T15:43:56.045Z,6.80
2022-11-06T15:46:23.096Z,6.20
2022-11-06T15:49:17.471Z,6.20
2022-11-06T15:52:16.472Z,6.10
2022-11-06T15:54:44.379Z,6.10
2022-11-06T15:57:20.513Z,6.00
2022-11-06T15:59:47.690Z,6.10
2022-11-06T16:03:22.893Z,6.00
2022-11-06T16:05:50.811Z,6.00
2022-11-06T16:08:20.007Z,6.00
2022-11-06T16:10:51.107Z,6.00
2022-11-06T16:13:21.211Z,6.00
2022-11-06T16:16:00.734Z,6.00
2022-11-06T16:18:46.025Z,7.10
2022-11-06T16:21:17.620Z,5.90
2022-11-06T16:23:54.267Z,5.90
2022-11-06T16:26:24.256Z,5.90
2022-11-06T16:28:53.462Z,5.90
2022-11-06T16:31:27.075Z,5.90
2022-11-06T16:34:01.016Z,5.90
2022-11-06T16:36:30.182Z,6.80
2022-11-06T16:39:40.065Z,5.80
2022-11-06T16:42:23.902Z,5.80
2022-11-06T16:44:59.507Z,5.80
2022-11-06T16:47:26.783Z,7.40
2022-11-06T16:49:55.966Z,7.90
2022-11-06T16:52:33.137Z,7.50
2022-11-06T16:55:20.472Z,5.70
2022-11-06T16:57:47.432Z,7.20
2022-11-06T17:00:20.654Z,7.30
2022-11-06T17:02:53.637Z,5.70
2022-11-06T17:05:29.191Z,5.70
2022-11-06T17:08:20.522Z,5.70
2022-11-06T17:10:54.705Z,5.80
2022-11-06T17:13:32.237Z,6.40
2022-11-06T17:16:02.269Z,5.70
2022-11-06T17:18:34.531Z,5.90
2022-11-06T17:21:07.494Z,5.70
2022-11-06T17:23:34.992Z,5.70
2022-11-06T17:26:28.112Z,7.90
2022-11-06T17:28:56.672Z,5.70
2022-11-06T17:31:24.604Z,7.90
2022-11-06T17:33:52.426Z,5.70
2022-11-06T17:36:25.464Z,5.70
2022-11-06T17:38:53.802Z,7.30
2022-11-06T17:41:30.681Z,5.60
2022-11-06T17:44:00.307Z,6.10
2022-11-06T17:47:03.459Z,7.30
2022-11-06T17:53:50.232Z,5.70
2022-11-06T17:56:23.436Z,7.30
2022-11-06T17:58:50.444Z,7.80
2022-11-06T18:01:17.488Z,7.20
2022-11-06T18:03:45.468Z,7.10
2022-11-06T18:06:14.293Z,7.90
2022-11-06T18:08:41.778Z,7.90
2022-11-06T18:11:10.031Z,7.00
2022-11-06T18:13:38.171Z,5.80
2022-11-06T18:16:14.253Z,5.80
2022-11-06T18:18:41.293Z,5.90
2022-11-06T18:21:08.270Z,5.90
2022-11-06T18:23:36.616Z,5.90
2022-11-06T18:26:03.984Z,6.00
2022-11-06T18:28:31.397Z,6.00
2022-11-06T18:30:59.261Z,6.00
2022-11-06T18:33:27.716Z,6.00
2022-11-06T18:35:59.303Z,6.20
2022-11-06T18:38:26.522Z,7.40
2022-11-06T18:40:53.684Z,6.00
2022-11-06T18:43:20.668Z,7.80
2022-11-06T18:45:47.820Z,7.50
2022-11-06T18:48:17.157Z,6.10
2022-11-06T18:50:47.864Z,7.10
2022-11-06T18:53:15.366Z,6.10
2022-11-06T18:55:46.076Z,6.10
2022-11-06T18:58:13.521Z,6.20
2022-11-06T19:01:04.208Z,7.60
2022-11-06T19:03:31.313Z,7.70
2022-11-06T19:05:58.313Z,6.20
2022-11-06T19:08:25.325Z,6.20
2022-11-06T19:10:52.424Z,6.20
2022-11-06T19:13:19.527Z,7.70
2022-11-06T19:15:46.545Z,6.30
2022-11-06T19:19:25.586Z,6.90
2022-11-06T19:21:53.045Z,6.40
2022-11-06T19:24:20.270Z,6.40
2022-11-06T19:26:47.956Z,6.40
2022-11-06T19:29:25.340Z,6.40
2022-11-06T19:31:55.254Z,6.40
2022-11-06T19:34:28.265Z,6.40
2022-11-06T19:36:56.141Z,6.40
2022-11-06T19:39:23.330Z,6.40
2022-11-06T19:41:50.533Z,8.60
2022-11-06T19:44:17.610Z,6.50
2022-11-06T19:46:44.707Z,6.40
2022-11-06T19:49:11.884Z,7.20
2022-11-06T19:51:41.088Z,6.50
2022-11-06T19:54:09.679Z,7.60
2022-11-06T19:56:36.843Z,6.60
2022-11-06T19:59:24.467Z,6.60
2022-11-06T20:01:51.626Z,7.10
2022-11-06T20:04:18.708Z,7.80
2022-11-06T20:06:45.680Z,6.60
2022-11-06T20:09:12.709Z,7.90
2022-11-06T20:11:39.724Z,7.50
2022-11-06T20:14:07.000Z,7.80
2022-11-06T20:16:34.044Z,6.60
2022-11-06T20:19:05.040Z,6.60
2022-11-06T20:21:32.050Z,7.40
2022-11-06T20:23:59.033Z,6.70
2022-11-06T20:26:27.387Z,7.30
2022-11-06T20:28:54.799Z,8.10
2022-11-06T20:31:41.580Z,6.80
2022-11-06T20:34:08.606Z,6.80
2022-11-06T20:36:35.934Z,6.90
2022-11-06T20:39:04.323Z,7.30
2022-11-06T20:41:31.790Z,6.90
2022-11-06T20:43:59.645Z,7.80
2022-11-06T20:46:27.038Z,6.90
2022-11-06T20:48:54.677Z,6.90
2022-11-06T20:51:25.411Z,6.90
2022-11-06T20:53:53.654Z,7.90
2022-11-06T20:56:25.345Z,7.40
2022-11-06T20:58:56.332Z,7.20
2022-11-06T21:01:27.211Z,6.90
2022-11-06T21:03:55.021Z,6.90
2022-11-06T21:06:24.460Z,7.30
2022-11-06T21:08:52.211Z,6.80
2022-11-06T21:11:22.005Z,6.80
2022-11-06T21:14:08.073Z,6.80
2022-11-06T21:16:36.757Z,6.70
2022-11-06T21:19:04.917Z,6.70
2022-11-06T21:21:34.547Z,6.70
2022-11-06T21:24:02.997Z,6.70
2022-11-06T21:26:32.445Z,6.70
2022-11-06T21:29:22.953Z,6.70
2022-11-06T21:31:50.552Z,6.70
2022-11-06T21:34:18.914Z,7.80
2022-11-06T21:36:46.885Z,6.70
2022-11-06T21:39:16.848Z,7.50
2022-11-06T21:41:44.109Z,6.80
2022-11-06T21:44:16.862Z,6.80
2022-11-06T21:46:45.785Z,6.80
2022-11-06T21:49:13.863Z,6.90
2022-11-06T21:51:41.191Z,7.30
2022-11-06T21:54:29.577Z,6.90
2022-11-06T21:56:56.681Z,8.10
2022-11-06T21:59:28.450Z,7.10
2022-11-06T22:01:56.211Z,7.20
2022-11-06T22:04:23.445Z,7.30
2022-11-06T22:06:52.539Z,7.40
2022-11-06T22:09:25.025Z,8.50
2022-11-06T22:11:52.998Z,7.50
2022-11-06T22:14:20.011Z,7.60
2022-11-06T22:16:47.907Z,7.60
2022-11-06T22:19:16.243Z,7.60
2022-11-06T22:21:43.731Z,7.60
2022-11-06T22:24:15.061Z,8.40
2022-11-06T22:26:42.389Z,7.60
2022-11-06T22:29:12.653Z,7.60
2022-11-06T22:31:39.702Z,7.60
2022-11-06T22:34:09.060Z,7.60
2022-11-06T22:36:36.944Z,7.60
2022-11-06T22:39:06.503Z,7.90
2022-11-06T22:41:33.543Z,7.60
2022-11-06T22:44:01.401Z,7.70
2022-11-06T22:46:28.764Z,7.60
2022-11-06T22:48:56.026Z,7.60
2022-11-06T22:51:28.741Z,8.30
2022-11-06T22:53:55.974Z,7.50
2022-11-06T22:56:24.934Z,8.00
2022-11-06T22:58:57.229Z,7.40
2022-11-06T23:01:26.033Z,7.40
2022-11-06T23:03:56.942Z,7.50
2022-11-06T23:06:25.145Z,7.50
2022-11-06T23:08:52.412Z,7.60
2022-11-06T23:11:19.725Z,7.60
2022-11-06T23:13:46.771Z,7.70
2022-11-06T23:16:42.530Z,7.70
2022-11-06T23:19:11.750Z,7.70
2022-11-06T23:21:39.393Z,7.80
2022-11-06T23:24:07.059Z,7.80
2022-11-06T23:26:34.187Z,7.70
2022-11-06T23:29:02.141Z,7.90
2022-11-06T23:31:29.469Z,7.70
2022-11-06T23:33:56.591Z,8.10
2022-11-06T23:36:23.552Z,7.70
2022-11-06T23:38:53.241Z,7.60
2022-11-06T23:41:38.714Z,7.60
2022-11-06T23:44:25.858Z,7.80
2022-11-06T23:46:53.168Z,7.60
2022-11-06T23:49:20.244Z,7.80
2022-11-06T23:51:47.372Z,7.70
2022-11-06T23:54:14.625Z,7.70
2022-11-06T23:56:41.702Z,7.70
2022-11-06T23:59:08.761Z,7.70
